createdAt,value
2023-06-21T00:00:04.169Z,48.61
2023-06-21T00:02:37.971Z,48.50
2023-06-21T00:05:10.948Z,48.44
2023-06-21T00:07:44.103Z,48.30
2023-06-21T00:10:17.090Z,48.32
2023-06-21T00:12:50.178Z,48.32
2023-06-21T00:15:26.975Z,48.28
2023-06-21T00:18:00.074Z,48.30
2023-06-21T00:20:33.010Z,48.34
2023-06-21T00:23:05.983Z,48.27
2023-06-21T00:25:39.682Z,48.29
2023-06-21T00:28:12.015Z,48.29
2023-06-21T00:30:45.137Z,48.26
2023-06-21T00:33:18.095Z,48.31
2023-06-21T00:35:51.161Z,48.26
2023-06-21T00:38:24.091Z,48.29
2023-06-21T00:40:57.037Z,48.33
2023-06-21T00:43:30.084Z,48.39
2023-06-21T00:46:03.083Z,48.29
2023-06-21T00:48:36.205Z,48.21
2023-06-21T00:51:09.993Z,48.20
2023-06-21T00:53:43.120Z,48.15
2023-06-21T00:56:16.104Z,48.17
2023-06-21T00:58:49.077Z,48.19
2023-06-21T01:01:22.161Z,48.16
2023-06-21T01:03:55.217Z,48.06
2023-06-21T01:06:29.169Z,48.06
2023-06-21T01:09:02.201Z,48.02
2023-06-21T01:11:36.148Z,48.04
2023-06-21T01:14:09.042Z,48.14
2023-06-21T01:16:42.248Z,48.19
2023-06-21T01:19:16.148Z,48.10
2023-06-21T01:21:49.123Z,48.14
2023-06-21T01:24:22.128Z,48.02
2023-06-21T01:26:55.190Z,48.05
2023-06-21T01:29:42.170Z,48.01
2023-06-21T01:32:15.107Z,48.02
2023-06-21T01:34:48.253Z,47.95
2023-06-21T01:37:22.150Z,47.84
2023-06-21T01:39:55.206Z,47.94
2023-06-21T01:42:28.133Z,47.88
2023-06-21T01:45:01.188Z,47.75
2023-06-21T01:47:34.179Z,47.66
2023-06-21T01:50:07.090Z,47.69
2023-06-21T01:52:40.365Z,47.58
2023-06-21T01:55:14.167Z,47.57
2023-06-21T01:57:51.132Z,47.53
2023-06-21T02:00:24.323Z,47.54
2023-06-21T02:02:57.335Z,47.51
2023-06-21T02:05:30.285Z,47.49
2023-06-21T02:08:03.066Z,47.50
2023-06-21T02:10:36.261Z,47.45
2023-06-21T02:13:09.134Z,47.45
2023-06-21T02:15:42.291Z,47.45
2023-06-21T02:18:15.222Z,47.39
2023-06-21T02:20:48.344Z,47.45
2023-06-21T02:23:22.248Z,47.41
2023-06-21T02:25:55.155Z,47.37
2023-06-21T02:28:28.315Z,47.33
2023-06-21T02:31:01.056Z,47.37
2023-06-21T02:33:34.347Z,47.33
2023-06-21T02:36:08.171Z,47.33
2023-06-21T02:38:41.150Z,47.40
2023-06-21T02:41:14.394Z,47.32
2023-06-21T02:43:48.280Z,47.28
2023-06-21T02:46:21.336Z,47.24
2023-06-21T02:48:54.453Z,47.24
2023-06-21T02:51:28.382Z,47.22
2023-06-21T02:54:02.279Z,47.17
2023-06-21T02:56:35.305Z,47.16
2023-06-21T02:59:08.248Z,47.16
2023-06-21T03:01:41.259Z,47.12
2023-06-21T03:04:14.240Z,47.14
2023-06-21T03:06:47.385Z,47.15
2023-06-21T03:09:20.330Z,47.14
2023-06-21T03:11:53.394Z,47.14
2023-06-21T03:14:27.276Z,47.15
2023-06-21T03:17:00.440Z,47.04
2023-06-21T03:19:34.245Z,47.15
2023-06-21T03:22:07.246Z,47.20
2023-06-21T03:24:40.417Z,47.09
2023-06-21T03:27:13.133Z,47.02
2023-06-21T03:29:46.428Z,47.02
2023-06-21T03:32:20.492Z,47.06
2023-06-21T03:34:53.126Z,46.98
2023-06-21T03:37:26.531Z,46.97
2023-06-21T03:40:00.108Z,47.02
2023-06-21T03:42:33.099Z,47.13
2023-06-21T03:45:06.264Z,46.92
2023-06-21T03:47:39.138Z,46.92
2023-06-21T03:50:12.381Z,46.94
2023-06-21T03:52:45.326Z,46.98
2023-06-21T03:55:18.339Z,47.02
2023-06-21T03:57:51.123Z,47.08
2023-06-21T04:00:24.389Z,46.98
2023-06-21T04:02:57.382Z,47.16
2023-06-21T04:05:30.494Z,47.13
2023-06-21T04:08:04.021Z,47.24
2023-06-21T04:10:37.137Z,47.34
2023-06-21T04:13:10.080Z,47.27
2023-06-21T04:15:43.258Z,47.47
2023-06-21T04:18:16.184Z,47.66
2023-06-21T04:20:49.155Z,47.99
2023-06-21T04:23:22.340Z,48.27
2023-06-21T04:25:55.197Z,48.42
2023-06-21T04:28:28.187Z,48.46
2023-06-21T04:31:01.236Z,48.39
2023-06-21T04:33:34.366Z,48.36
2023-06-21T04:36:07.295Z,48.25
2023-06-21T04:38:40.294Z,48.18
2023-06-21T04:41:13.322Z,48.17
2023-06-21T04:43:46.068Z,48.22
2023-06-21T04:46:19.658Z,48.28
2023-06-21T04:48:52.371Z,48.39
2023-06-21T04:51:25.357Z,48.52
2023-06-21T04:53:58.541Z,48.94
2023-06-21T04:56:32.318Z,49.30
2023-06-21T04:59:05.367Z,49.80
2023-06-21T05:01:38.487Z,50.23
2023-06-21T05:04:11.370Z,50.30
2023-06-21T05:06:44.206Z,50.78
2023-06-21T05:09:17.548Z,50.60
2023-06-21T05:11:51.560Z,50.83
2023-06-21T05:14:24.398Z,51.23
2023-06-21T05:16:57.465Z,51.42
2023-06-21T05:19:30.381Z,51.37
2023-06-21T05:22:03.553Z,51.63
2023-06-21T05:24:37.230Z,51.95
2023-06-21T05:27:10.366Z,52.04
2023-06-21T05:29:43.413Z,52.41
2023-06-21T05:32:16.460Z,53.01
2023-06-21T05:34:49.430Z,53.36
2023-06-21T05:37:22.478Z,53.49
2023-06-21T05:39:55.585Z,53.68
2023-06-21T05:42:29.490Z,53.97
2023-06-21T05:45:02.470Z,54.32
2023-06-21T05:47:35.644Z,54.54
2023-06-21T05:50:08.375Z,54.73
2023-06-21T05:52:41.289Z,54.91
2023-06-21T05:55:14.490Z,54.88
2023-06-21T05:57:47.581Z,54.67
2023-06-21T06:00:20.656Z,54.67
2023-06-21T06:02:54.719Z,54.75
2023-06-21T06:05:28.558Z,55.04
2023-06-21T06:08:01.526Z,55.51
2023-06-21T06:10:34.574Z,55.34
2023-06-21T06:13:07.536Z,55.48
2023-06-21T06:15:40.310Z,55.48
2023-06-21T06:18:13.532Z,55.30
2023-06-21T06:20:47.111Z,55.08
2023-06-21T06:23:19.482Z,54.98
2023-06-21T06:25:55.512Z,54.55
2023-06-21T06:28:28.582Z,54.33
2023-06-21T06:31:01.415Z,54.13
2023-06-21T06:33:34.669Z,53.91
2023-06-21T06:36:07.517Z,53.78
2023-06-21T06:38:40.689Z,53.62
2023-06-21T06:41:14.229Z,53.32
2023-06-21T06:43:47.707Z,53.05
2023-06-21T06:46:21.499Z,52.80
2023-06-21T06:48:55.835Z,52.93
2023-06-21T06:51:29.594Z,52.57
2023-06-21T06:54:04.130Z,52.46
2023-06-21T06:56:35.686Z,52.30
2023-06-21T06:59:09.652Z,52.10
2023-06-21T07:01:42.559Z,52.01
2023-06-21T07:04:15.765Z,52.07
2023-06-21T07:06:48.679Z,52.01
2023-06-21T07:09:24.626Z,51.97
2023-06-21T07:11:58.611Z,51.90
2023-06-21T07:14:35.665Z,51.86
2023-06-21T07:17:09.583Z,51.80
2023-06-21T07:19:42.739Z,51.73
2023-06-21T07:22:15.567Z,51.65
2023-06-21T07:24:48.588Z,51.57
2023-06-21T07:27:22.689Z,51.49
2023-06-21T07:29:55.824Z,51.46
2023-06-21T07:32:32.232Z,51.37
2023-06-21T07:35:04.695Z,51.31
2023-06-21T07:37:37.814Z,51.26
2023-06-21T07:40:11.514Z,51.19
2023-06-21T07:42:44.825Z,51.14
2023-06-21T07:45:23.635Z,51.12
2023-06-21T07:47:56.725Z,51.04
2023-06-21T07:50:29.591Z,51.00
2023-06-21T07:53:02.699Z,50.91
2023-06-21T07:55:35.895Z,50.89
2023-06-21T07:58:09.678Z,50.84
2023-06-21T08:00:42.641Z,50.81
2023-06-21T08:03:16.794Z,50.78
2023-06-21T08:05:50.837Z,50.79
2023-06-21T08:08:23.608Z,50.78
2023-06-21T08:10:56.647Z,50.78
2023-06-21T08:13:32.619Z,50.75
2023-06-21T08:16:05.713Z,50.73
2023-06-21T08:18:38.657Z,50.69
2023-06-21T08:21:12.748Z,50.67
2023-06-21T08:23:45.776Z,50.61
2023-06-21T08:26:19.691Z,50.55
2023-06-21T08:28:52.819Z,50.51
2023-06-21T08:31:26.727Z,50.46
2023-06-21T08:34:00.720Z,50.44
2023-06-21T08:36:33.714Z,50.40
2023-06-21T08:39:06.848Z,50.38
2023-06-21T08:41:41.006Z,50.32
2023-06-21T08:44:14.815Z,50.29
2023-06-21T08:46:47.791Z,50.28
2023-06-21T08:49:20.700Z,50.22
2023-06-21T08:51:54.007Z,50.21
2023-06-21T08:54:27.671Z,50.17
2023-06-21T08:57:00.830Z,50.15
2023-06-21T08:59:34.763Z,50.13
2023-06-21T09:02:07.804Z,50.09
2023-06-21T09:04:41.100Z,50.05
2023-06-21T09:07:15.050Z,50.01
2023-06-21T09:09:47.805Z,49.97
2023-06-21T09:12:20.726Z,49.97
2023-06-21T09:14:53.938Z,49.94
2023-06-21T09:17:31.540Z,49.91
2023-06-21T09:20:04.786Z,49.91
2023-06-21T09:22:38.197Z,49.87
2023-06-21T09:25:13.449Z,49.82
2023-06-21T09:27:47.774Z,49.79
2023-06-21T09:30:38.901Z,49.80
2023-06-21T09:32:57.917Z,49.75
2023-06-21T09:35:30.744Z,49.73
2023-06-21T09:38:04.046Z,49.70
2023-06-21T09:40:37.881Z,49.67
2023-06-21T09:43:10.828Z,49.66
2023-06-21T09:45:43.995Z,49.65
2023-06-21T09:48:18.061Z,49.61
2023-06-21T09:50:50.815Z,49.57
2023-06-21T09:53:23.978Z,49.55
2023-06-21T09:55:57.000Z,49.53
2023-06-21T10:01:20.895Z,49.52
2023-06-21T10:03:54.140Z,49.52
2023-06-21T10:06:27.795Z,49.46
2023-06-21T10:09:00.873Z,49.43
2023-06-21T10:11:33.711Z,49.40
2023-06-21T10:14:06.933Z,49.38
2023-06-21T10:16:39.970Z,49.37
2023-06-21T10:19:16.741Z,49.35
2023-06-21T10:21:49.902Z,49.33
2023-06-21T10:24:23.022Z,49.30
2023-06-21T10:26:56.848Z,49.29
2023-06-21T10:29:29.815Z,49.27
2023-06-21T10:32:03.065Z,49.26
2023-06-21T10:34:36.965Z,49.22
2023-06-21T10:37:09.964Z,49.21
2023-06-21T10:39:43.033Z,49.19
2023-06-21T10:42:16.704Z,49.18
2023-06-21T10:44:49.072Z,49.14
2023-06-21T10:47:23.034Z,49.15
2023-06-21T10:49:55.989Z,49.12
2023-06-21T10:52:28.918Z,49.09
2023-06-21T10:55:02.029Z,49.10
2023-06-21T10:57:35.800Z,49.07
2023-06-21T11:00:08.897Z,49.08
2023-06-21T11:02:42.086Z,49.06
2023-06-21T11:05:15.054Z,49.04
2023-06-21T11:07:48.135Z,49.02
2023-06-21T11:10:22.022Z,49.00
2023-06-21T11:12:54.992Z,49.00
2023-06-21T11:15:27.886Z,48.97
2023-06-21T11:18:00.966Z,48.98
2023-06-21T11:20:33.938Z,48.95
2023-06-21T11:23:06.926Z,48.93
2023-06-21T11:25:40.191Z,48.91
2023-06-21T11:28:14.060Z,48.90
2023-06-21T11:30:47.034Z,48.90
2023-06-21T11:33:19.992Z,48.90
2023-06-21T11:35:52.943Z,48.87
2023-06-21T11:38:26.268Z,48.86
2023-06-21T11:40:59.987Z,48.83
2023-06-21T11:43:32.672Z,48.84
2023-06-21T11:46:05.922Z,48.80
2023-06-21T11:48:42.833Z,48.79
2023-06-21T11:51:15.791Z,48.79
2023-06-21T11:53:48.961Z,48.78
2023-06-21T11:56:22.131Z,48.75
2023-06-21T11:58:54.691Z,48.74
2023-06-21T12:01:27.753Z,48.73
2023-06-21T12:04:00.941Z,48.71
2023-06-21T12:06:33.655Z,48.69
2023-06-21T12:09:06.695Z,48.68
2023-06-21T12:11:39.805Z,48.67
2023-06-21T12:14:12.997Z,48.63
2023-06-21T12:16:45.816Z,48.61
2023-06-21T12:19:18.806Z,48.60
2023-06-21T12:21:51.826Z,48.58
2023-06-21T12:24:25.008Z,48.56
2023-06-21T12:26:57.969Z,48.51
2023-06-21T12:29:30.723Z,48.53
2023-06-21T12:32:03.736Z,48.54
2023-06-21T12:34:36.721Z,48.46
2023-06-21T12:37:09.759Z,48.45
2023-06-21T12:39:43.171Z,48.39
2023-06-21T12:42:15.945Z,48.37
2023-06-21T12:44:48.744Z,48.33
2023-06-21T12:47:23.030Z,48.32
2023-06-21T12:49:56.233Z,48.30
2023-06-21T12:52:30.111Z,48.28
2023-06-21T12:55:02.970Z,48.27
2023-06-21T12:57:36.049Z,48.22
2023-06-21T13:00:08.838Z,48.22
2023-06-21T13:02:42.275Z,48.19
2023-06-21T13:05:15.056Z,48.21
2023-06-21T13:07:47.913Z,48.17
2023-06-21T13:10:21.007Z,48.15
2023-06-21T13:12:54.117Z,48.17
2023-06-21T13:15:26.790Z,48.18
2023-06-21T13:18:00.080Z,48.19
2023-06-21T13:20:33.194Z,48.22
2023-06-21T13:23:05.826Z,48.24
2023-06-21T13:25:52.855Z,48.18
2023-06-21T13:28:26.031Z,48.19
2023-06-21T13:30:59.003Z,48.17
2023-06-21T13:33:32.108Z,48.16
2023-06-21T13:36:04.828Z,48.15
2023-06-21T13:38:38.078Z,48.13
2023-06-21T13:41:11.090Z,48.13
2023-06-21T13:43:44.047Z,48.12
2023-06-21T13:46:17.229Z,48.08
2023-06-21T13:48:50.269Z,48.07
2023-06-21T13:51:23.118Z,48.07
2023-06-21T13:53:56.326Z,47.99
2023-06-21T13:56:30.138Z,47.99
2023-06-21T13:59:03.125Z,47.95
2023-06-21T14:01:36.129Z,47.90
2023-06-21T14:04:09.240Z,47.88
2023-06-21T14:06:42.213Z,47.89
2023-06-21T14:09:15.181Z,47.86
2023-06-21T14:11:48.196Z,47.86
2023-06-21T14:14:21.246Z,47.83
2023-06-21T14:16:54.386Z,47.83
2023-06-21T14:19:27.150Z,47.84
2023-06-21T14:22:00.244Z,47.80
2023-06-21T14:24:33.332Z,47.82
2023-06-21T14:27:07.237Z,47.83
2023-06-21T14:29:40.186Z,47.80
2023-06-21T14:32:13.365Z,47.81
2023-06-21T14:34:47.393Z,47.80
2023-06-21T14:37:21.291Z,47.80
2023-06-21T14:39:54.002Z,47.80
2023-06-21T14:42:27.255Z,47.80
2023-06-21T14:45:00.328Z,47.77
2023-06-21T14:47:33.344Z,47.77
2023-06-21T14:50:05.944Z,47.77
2023-06-21T14:52:39.165Z,47.75
2023-06-21T14:55:12.316Z,47.75
2023-06-21T14:57:45.196Z,47.77
2023-06-21T15:00:18.323Z,47.75
2023-06-21T15:02:51.558Z,47.70
2023-06-21T15:05:24.265Z,47.74
2023-06-21T15:07:57.202Z,47.69
2023-06-21T15:10:30.559Z,47.75
2023-06-21T15:13:03.961Z,47.84
2023-06-21T15:15:37.174Z,47.83
2023-06-21T15:18:10.004Z,47.82
2023-06-21T15:20:43.230Z,47.82
2023-06-21T15:23:16.173Z,47.81
2023-06-21T15:25:49.062Z,47.76
2023-06-21T15:28:22.160Z,47.85
2023-06-21T15:30:55.223Z,47.92
2023-06-21T15:33:28.150Z,47.83
2023-06-21T15:36:01.093Z,47.86
2023-06-21T15:38:34.117Z,47.78
2023-06-21T15:41:07.000Z,47.72
2023-06-21T15:43:40.113Z,47.70
2023-06-21T15:46:13.144Z,47.67
2023-06-21T15:48:46.011Z,47.67
2023-06-21T15:51:19.116Z,47.63
2023-06-21T15:53:52.168Z,47.61
2023-06-21T15:56:25.162Z,47.68
2023-06-21T15:58:58.125Z,48.21
2023-06-21T16:01:31.180Z,48.15
2023-06-21T16:04:04.166Z,48.53
2023-06-21T16:06:37.139Z,48.66
2023-06-21T16:09:10.061Z,48.77
2023-06-21T16:11:43.039Z,48.86
2023-06-21T16:14:16.198Z,48.81
2023-06-21T16:16:49.338Z,48.80
2023-06-21T16:19:22.179Z,48.79
2023-06-21T16:21:55.232Z,48.77
2023-06-21T16:24:28.180Z,48.64
2023-06-21T16:27:01.144Z,48.52
2023-06-21T16:29:34.215Z,48.46
2023-06-21T16:32:07.256Z,48.37
2023-06-21T16:34:40.212Z,48.37
2023-06-21T16:37:13.333Z,48.38
2023-06-21T16:39:46.086Z,48.38
2023-06-21T16:42:19.140Z,48.41
2023-06-21T16:44:52.220Z,48.53
2023-06-21T16:47:25.180Z,48.48
2023-06-21T16:49:58.398Z,48.46
2023-06-21T16:52:31.129Z,48.68
2023-06-21T16:55:04.098Z,48.67
2023-06-21T16:57:37.266Z,48.63
2023-06-21T17:00:11.114Z,48.65
2023-06-21T17:02:44.226Z,48.85
2023-06-21T17:05:17.212Z,48.83
2023-06-21T17:07:50.244Z,48.91
2023-06-21T17:10:23.337Z,48.85
2023-06-21T17:12:56.448Z,48.85
2023-06-21T17:15:29.753Z,48.84
2023-06-21T17:18:02.661Z,48.76
2023-06-21T17:20:36.100Z,48.71
2023-06-21T17:23:09.402Z,48.68
2023-06-21T17:25:42.576Z,48.63
2023-06-21T17:28:16.238Z,48.55
2023-06-21T17:30:49.420Z,48.51
2023-06-21T17:33:22.287Z,48.49
2023-06-21T17:35:55.486Z,48.50
2023-06-21T17:38:28.178Z,48.48
2023-06-21T17:41:01.382Z,48.56
2023-06-21T17:43:34.458Z,48.72
2023-06-21T17:46:07.173Z,48.79
2023-06-21T17:48:43.428Z,48.74
2023-06-21T17:51:16.280Z,48.72
2023-06-21T17:53:53.165Z,48.71
2023-06-21T17:56:26.492Z,48.71
2023-06-21T17:58:59.364Z,48.71
2023-06-21T18:01:32.370Z,48.74
2023-06-21T18:04:05.286Z,48.76
2023-06-21T18:06:38.302Z,48.81
2023-06-21T18:09:11.444Z,48.84
2023-06-21T18:11:44.405Z,48.87
2023-06-21T18:14:17.382Z,48.91
2023-06-21T18:16:50.212Z,48.97
2023-06-21T18:19:23.609Z,49.03
2023-06-21T18:22:07.470Z,49.08
2023-06-21T18:24:29.627Z,49.15
2023-06-21T18:27:02.304Z,49.28
2023-06-21T18:29:35.341Z,49.34
2023-06-21T18:32:08.221Z,49.33
2023-06-21T18:34:41.279Z,49.41
2023-06-21T18:37:14.493Z,49.40
2023-06-21T18:39:47.257Z,49.44
2023-06-21T18:42:20.431Z,49.47
2023-06-21T18:44:53.415Z,49.35
2023-06-21T18:47:26.677Z,49.24
2023-06-21T18:50:13.307Z,49.20
2023-06-21T18:52:46.393Z,49.29
2023-06-21T18:55:19.377Z,49.33
2023-06-21T18:57:52.278Z,49.34
2023-06-21T19:00:25.582Z,49.40
2023-06-21T19:02:58.572Z,49.39
2023-06-21T19:05:31.523Z,49.41
2023-06-21T19:08:04.266Z,49.41
2023-06-21T19:10:37.434Z,49.39
2023-06-21T19:13:10.263Z,49.42
2023-06-21T19:15:43.490Z,49.41
2023-06-21T19:18:16.562Z,49.45
2023-06-21T19:20:49.370Z,49.40
2023-06-21T19:23:22.504Z,49.44
2023-06-21T19:25:55.355Z,49.47
2023-06-21T19:28:28.387Z,49.52
2023-06-21T19:31:01.647Z,49.64
2023-06-21T19:33:34.608Z,49.70
2023-06-21T19:36:07.406Z,49.63
2023-06-21T19:38:40.407Z,49.48
2023-06-21T19:41:13.383Z,49.16
2023-06-21T19:43:46.474Z,49.02
2023-06-21T19:46:19.450Z,49.01
2023-06-21T19:48:53.361Z,49.06
2023-06-21T19:51:26.457Z,48.81
2023-06-21T19:53:59.344Z,48.74
2023-06-21T19:56:32.493Z,48.58
2023-06-21T19:59:09.174Z,48.63
2023-06-21T20:01:42.477Z,48.56
2023-06-21T20:04:15.463Z,48.59
2023-06-21T20:06:48.568Z,48.51
2023-06-21T20:09:21.656Z,48.54
2023-06-21T20:11:54.383Z,48.50
2023-06-21T20:14:27.434Z,48.49
2023-06-21T20:17:00.454Z,48.44
2023-06-21T20:19:36.225Z,48.50
2023-06-21T20:22:06.528Z,48.24
2023-06-21T20:24:39.556Z,48.34
2023-06-21T20:27:12.429Z,48.26
2023-06-21T20:29:45.556Z,48.24
2023-06-21T20:32:18.786Z,48.21
2023-06-21T20:34:51.804Z,48.31
2023-06-21T20:37:24.559Z,48.24
2023-06-21T20:39:57.415Z,48.13
2023-06-21T20:42:30.632Z,48.41
2023-06-21T20:45:03.550Z,48.30
2023-06-21T20:47:36.806Z,48.16
2023-06-21T20:50:09.586Z,48.21
2023-06-21T20:52:42.561Z,48.76
2023-06-21T20:55:15.553Z,48.51
2023-06-21T20:57:48.563Z,48.37
2023-06-21T21:00:21.624Z,48.41
2023-06-21T21:02:54.559Z,48.42
2023-06-21T21:05:27.599Z,48.47
2023-06-21T21:08:00.521Z,48.44
2023-06-21T21:10:33.591Z,48.44
2023-06-21T21:13:06.607Z,48.59
2023-06-21T21:15:39.529Z,48.75
2023-06-21T21:18:12.720Z,48.63
2023-06-21T21:20:45.550Z,48.68
2023-06-21T21:23:18.749Z,48.54
2023-06-21T21:25:51.579Z,48.52
2023-06-21T21:28:24.772Z,48.54
2023-06-21T21:30:57.529Z,48.62
2023-06-21T21:33:30.604Z,48.72
2023-06-21T21:36:03.604Z,48.52
2023-06-21T21:38:36.579Z,48.48
2023-06-21T21:41:09.668Z,48.59
2023-06-21T21:43:42.636Z,48.59
2023-06-21T21:46:15.757Z,48.92
2023-06-21T21:48:48.804Z,48.94
2023-06-21T21:51:21.698Z,48.76
2023-06-21T21:53:54.636Z,48.95
2023-06-21T21:56:27.629Z,48.75
2023-06-21T21:59:00.526Z,48.84
2023-06-21T22:01:33.640Z,49.15
2023-06-21T22:04:06.690Z,49.53
2023-06-21T22:06:39.525Z,48.96
2023-06-21T22:09:12.661Z,49.09
2023-06-21T22:11:45.522Z,48.98
2023-06-21T22:14:18.795Z,48.95
2023-06-21T22:16:51.828Z,48.80
2023-06-21T22:19:24.830Z,48.74
2023-06-21T22:21:57.711Z,48.72
2023-06-21T22:24:30.905Z,48.56
2023-06-21T22:27:03.823Z,48.71
2023-06-21T22:29:36.936Z,48.60
2023-06-21T22:32:09.846Z,48.57
2023-06-21T22:34:42.682Z,48.66
2023-06-21T22:37:15.857Z,48.57
2023-06-21T22:39:48.903Z,48.54
2023-06-21T22:42:21.949Z,48.64
2023-06-21T22:44:55.140Z,48.47
2023-06-21T22:47:28.927Z,48.48
2023-06-21T22:50:01.911Z,48.52
2023-06-21T22:52:34.976Z,48.42
2023-06-21T22:55:07.938Z,48.48
2023-06-21T22:57:40.925Z,48.69
2023-06-21T23:00:14.004Z,48.54
2023-06-21T23:02:47.045Z,48.56
2023-06-21T23:05:20.047Z,48.70
2023-06-21T23:07:53.113Z,48.66
2023-06-21T23:10:27.208Z,48.61
2023-06-21T23:12:59.783Z,48.70
2023-06-21T23:15:32.972Z,48.56
2023-06-21T23:18:06.001Z,48.55
2023-06-21T23:23:24.938Z,48.57
2023-06-21T23:25:58.039Z,48.72
2023-06-21T23:28:31.128Z,48.55
2023-06-21T23:31:04.927Z,48.68
2023-06-21T23:33:37.944Z,48.61
2023-06-21T23:36:10.899Z,48.57
2023-06-21T23:38:44.141Z,48.59
2023-06-21T23:41:18.127Z,48.54
2023-06-21T23:43:52.064Z,48.58
2023-06-21T23:46:25.460Z,48.76
2023-06-21T23:48:58.982Z,48.64
2023-06-21T23:51:31.972Z,48.56
2023-06-21T23:54:04.969Z,48.59
2023-06-21T23:56:37.971Z,48.54
2023-06-21T23:59:10.987Z,48.58
